sensor_id;sensor_type;location;lat;lon;timestamp;temperature;humidity
63960;DHT22;50136;51.374;0.096;2023-03-17T00:03:21;11.40;99.90
63960;DHT22;50136;51.374;0.096;2023-03-17T00:13:25;11.30;99.90
63960;DHT22;50136;51.374;0.096;2023-03-17T00:23:27;11.30;99.90
63960;DHT22;50136;51.374;0.096;2023-03-17T00:33:32;11.30;99.90
63960;DHT22;50136;51.374;0.096;2023-03-17T00:43:34;11.40;99.90
63960;DHT22;50136;51.374;0.096;2023-03-17T00:53:38;11.40;99.90
63960;DHT22;50136;51.374;0.096;2023-03-17T01:03:40;11.50;99.90
63960;DHT22;50136;51.374;0.096;2023-03-17T01:13:44;11.60;99.90
63960;DHT22;50136;51.374;0.096;2023-03-17T01:23:46;11.60;99.90
63960;DHT22;50136;51.374;0.096;2023-03-17T01:33:49;11.60;99.90
63960;DHT22;50136;51.374;0.096;2023-03-17T01:43:51;11.70;99.90
63960;DHT22;50136;51.374;0.096;2023-03-17T01:53:55;11.70;99.90
63960;DHT22;50136;51.374;0.096;2023-03-17T02:03:57;11.70;99.90
63960;DHT22;50136;51.374;0.096;2023-03-17T02:14:01;11.70;99.90
63960;DHT22;50136;51.374;0.096;2023-03-17T02:24:08;11.70;99.90
63960;DHT22;50136;51.374;0.096;2023-03-17T02:34:11;11.70;99.90
63960;DHT22;50136;51.374;0.096;2023-03-17T02:44:14;11.70;99.90
63960;DHT22;50136;51.374;0.096;2023-03-17T02:54:16;11.80;99.90
63960;DHT22;50136;51.374;0.096;2023-03-17T03:04:19;11.80;99.90
63960;DHT22;50136;51.374;0.096;2023-03-17T03:14:21;11.80;99.90
63960;DHT22;50136;51.374;0.096;2023-03-17T03:24:25;11.80;99.90
63960;DHT22;50136;51.374;0.096;2023-03-17T03:34:29;11.80;99.90
63960;DHT22;50136;51.374;0.096;2023-03-17T03:44:32;11.70;99.90
63960;DHT22;50136;51.374;0.096;2023-03-17T03:54:34;11.70;99.90
63960;DHT22;50136;51.374;0.096;2023-03-17T04:04:37;11.80;99.90
63960;DHT22;50136;51.374;0.096;2023-03-17T04:14:39;11.70;99.90
63960;DHT22;50136;51.374;0.096;2023-03-17T04:24:43;11.70;99.90
63960;DHT22;50136;51.374;0.096;2023-03-17T04:34:45;11.60;99.90
63960;DHT22;50136;51.374;0.096;2023-03-17T04:44:48;11.60;99.90
63960;DHT22;50136;51.374;0.096;2023-03-17T04:54:50;11.60;99.90
63960;DHT22;50136;51.374;0.096;2023-03-17T05:04:53;11.50;99.90
63960;DHT22;50136;51.374;0.096;2023-03-17T05:14:55;11.50;99.90
63960;DHT22;50136;51.374;0.096;2023-03-17T05:24:59;11.40;99.90
63960;DHT22;50136;51.374;0.096;2023-03-17T05:35:01;11.40;99.90
63960;DHT22;50136;51.374;0.096;2023-03-17T05:45:05;11.30;99.90
63960;DHT22;50136;51.374;0.096;2023-03-17T05:55:08;11.20;99.90
63960;DHT22;50136;51.374;0.096;2023-03-17T06:05:11;11.20;99.90
63960;DHT22;50136;51.374;0.096;2023-03-17T06:15:14;11.20;99.90
63960;DHT22;50136;51.374;0.096;2023-03-17T06:25:18;11.20;99.90
63960;DHT22;50136;51.374;0.096;2023-03-17T06:35:20;11.10;99.90
63960;DHT22;50136;51.374;0.096;2023-03-17T06:45:24;11.20;99.90
63960;DHT22;50136;51.374;0.096;2023-03-17T06:55:26;11.30;99.90
63960;DHT22;50136;51.374;0.096;2023-03-17T07:05:29;11.30;99.90
63960;DHT22;50136;51.374;0.096;2023-03-17T07:15:32;11.30;99.90
63960;DHT22;50136;51.374;0.096;2023-03-17T07:25:37;11.30;99.90
63960;DHT22;50136;51.374;0.096;2023-03-17T07:35:39;11.50;99.90
63960;DHT22;50136;51.374;0.096;2023-03-17T07:45:42;11.50;99.90
63960;DHT22;50136;51.374;0.096;2023-03-17T07:55:44;11.40;99.90
63960;DHT22;50136;51.374;0.096;2023-03-17T08:05:51;11.30;99.90
63960;DHT22;50136;51.374;0.096;2023-03-17T08:15:54;11.30;99.90
63960;DHT22;50136;51.374;0.096;2023-03-17T08:25:58;11.30;99.90
63960;DHT22;50136;51.374;0.096;2023-03-17T08:36:04;11.40;99.90
63960;DHT22;50136;51.374;0.096;2023-03-17T08:46:12;11.60;99.90
63960;DHT22;50136;51.374;0.096;2023-03-17T08:56:15;11.70;99.90
63960;DHT22;50136;51.374;0.096;2023-03-17T09:06:19;11.60;99.90
63960;DHT22;50136;51.374;0.096;2023-03-17T09:16:21;11.60;99.90
63960;DHT22;50136;51.374;0.096;2023-03-17T09:26:27;11.70;99.90
63960;DHT22;50136;51.374;0.096;2023-03-17T09:36:29;11.90;99.90
63960;DHT22;50136;51.374;0.096;2023-03-17T09:57:39;12.30;99.90
63960;DHT22;50136;51.374;0.096;2023-03-17T10:07:45;12.60;99.90
63960;DHT22;50136;51.374;0.096;2023-03-17T10:17:50;13.00;99.90
63960;DHT22;50136;51.374;0.096;2023-03-17T10:27:56;12.90;99.90
63960;DHT22;50136;51.374;0.096;2023-03-17T10:38:01;12.80;99.90
63960;DHT22;50136;51.374;0.096;2023-03-17T10:48:16;12.70;99.90
63960;DHT22;50136;51.374;0.096;2023-03-17T10:58:21;12.80;99.90
63960;DHT22;50136;51.374;0.096;2023-03-17T11:08:31;13.10;99.90
63960;DHT22;50136;51.374;0.096;2023-03-17T11:18:38;12.80;99.90
63960;DHT22;50136;51.374;0.096;2023-03-17T11:28:44;12.60;99.90
63960;DHT22;50136;51.374;0.096;2023-03-17T11:38:58;13.00;99.90
63960;DHT22;50136;51.374;0.096;2023-03-17T11:49:06;12.80;99.90
63960;DHT22;50136;51.374;0.096;2023-03-17T11:59:18;12.80;99.90
63960;DHT22;50136;51.374;0.096;2023-03-17T12:09:30;12.80;99.90
63960;DHT22;50136;51.374;0.096;2023-03-17T12:19:40;12.90;99.90
63960;DHT22;50136;51.374;0.096;2023-03-17T12:29:48;12.90;99.90
63960;DHT22;50136;51.374;0.096;2023-03-17T12:39:56;12.90;99.90
63960;DHT22;50136;51.374;0.096;2023-03-17T12:50:17;12.80;99.90
63960;DHT22;50136;51.374;0.096;2023-03-17T13:00:28;13.00;99.90
63960;DHT22;50136;51.374;0.096;2023-03-17T13:10:40;13.00;99.90
63960;DHT22;50136;51.374;0.096;2023-03-17T13:20:51;13.20;99.90
63960;DHT22;50136;51.374;0.096;2023-03-17T13:31:02;13.20;99.90
63960;DHT22;50136;51.374;0.096;2023-03-17T13:41:17;13.20;99.90
63960;DHT22;50136;51.374;0.096;2023-03-17T13:51:32;13.30;99.90
63960;DHT22;50136;51.374;0.096;2023-03-17T14:12:43;13.70;99.90
63960;DHT22;50136;51.374;0.096;2023-03-17T14:22:47;14.60;99.90
63960;DHT22;50136;51.374;0.096;2023-03-17T14:32:56;14.30;99.90
63960;DHT22;50136;51.374;0.096;2023-03-17T14:43:01;15.00;99.90
63960;DHT22;50136;51.374;0.096;2023-03-17T14:53:08;15.30;99.90
63960;DHT22;50136;51.374;0.096;2023-03-17T15:03:17;15.40;99.90
63960;DHT22;50136;51.374;0.096;2023-03-17T15:13:23;15.70;99.90
63960;DHT22;50136;51.374;0.096;2023-03-17T15:23:28;15.90;99.90
63960;DHT22;50136;51.374;0.096;2023-03-17T15:33:33;16.20;99.90
63960;DHT22;50136;51.374;0.096;2023-03-17T15:43:36;16.40;99.90
63960;DHT22;50136;51.374;0.096;2023-03-17T15:53:40;16.10;99.90
63960;DHT22;50136;51.374;0.096;2023-03-17T16:03:42;16.10;99.90
63960;DHT22;50136;51.374;0.096;2023-03-17T16:13:46;15.50;99.90
63960;DHT22;50136;51.374;0.096;2023-03-17T16:23:49;15.50;99.90
63960;DHT22;50136;51.374;0.096;2023-03-17T16:33:53;15.60;99.90
63960;DHT22;50136;51.374;0.096;2023-03-17T16:43:59;14.90;99.90
63960;DHT22;50136;51.374;0.096;2023-03-17T16:54:03;14.50;99.90
63960;DHT22;50136;51.374;0.096;2023-03-17T17:04:08;14.30;99.90
63960;DHT22;50136;51.374;0.096;2023-03-17T17:14:11;14.30;99.90
63960;DHT22;50136;51.374;0.096;2023-03-17T17:24:13;14.10;99.90
63960;DHT22;50136;51.374;0.096;2023-03-17T17:56:24;13.10;99.90
63960;DHT22;50136;51.374;0.096;2023-03-17T18:06:51;12.90;99.90
63960;DHT22;50136;51.374;0.096;2023-03-17T18:16:55;12.70;99.90
63960;DHT22;50136;51.374;0.096;2023-03-17T18:47:58;12.00;99.90
63960;DHT22;50136;51.374;0.096;2023-03-17T19:19:20;11.70;99.90
63960;DHT22;50136;51.374;0.096;2023-03-17T19:51:10;11.30;99.90
63960;DHT22;50136;51.374;0.096;2023-03-17T20:11:30;11.10;99.90
63960;DHT22;50136;51.374;0.096;2023-03-17T21:05:25;10.80;99.90
63960;DHT22;50136;51.374;0.096;2023-03-17T21:37:54;10.80;99.90
63960;DHT22;50136;51.374;0.096;2023-03-17T21:58:14;10.80;99.90
63960;DHT22;50136;51.374;0.096;2023-03-17T22:18:34;10.80;99.90
63960;DHT22;50136;51.374;0.096;2023-03-17T22:28:36;10.70;99.90
63960;DHT22;50136;51.374;0.096;2023-03-17T22:38:40;10.80;99.90
63960;DHT22;50136;51.374;0.096;2023-03-17T22:48:42;10.70;99.90
63960;DHT22;50136;51.374;0.096;2023-03-17T23:10:04;10.80;99.90
63960;DHT22;50136;51.374;0.096;2023-03-17T23:20:08;10.80;99.90
63960;DHT22;50136;51.374;0.096;2023-03-17T23:30:14;10.70;99.90
63960;DHT22;50136;51.374;0.096;2023-03-17T23:40:16;10.70;99.90
63960;DHT22;50136;51.374;0.096;2023-03-17T23:50:20;10.60;99.90
